City of Industry, California
Current Conditions -  °F | °C
As of 3:53 AM on Monday 26 Jan 2015 (Local Time) from KONT Reporting Station
Broken Clouds Broken Clouds  
Wind Chill: 60°   Ceiling: 25000
Heat Index: 60°   Visibility: 9mi
Dew Point: 36°   Wind: 0mph
Humidity: 41%   Direction: NA
Pressure: 30"   Gusts: NA
Location:  34.01°N, 117.57°W
Report Text: KONT 261153Z 00000KT 9SM FEW120 SCT140 BKN250 16/02 A3000 RMK AO2 SLP148 T01560022 10178 20144 58013
Loading
Personal Weather Stations






























Interactive Weather Map New forecast layout! Learn more

10-Day Weather Forecast

Advertisements
Track Severe Weather on mobile